Averill, Vermont
Current Conditions -  °F | °C
As of 8:00 PM on Tuesday 21 Oct 2014 (Local Time) from CYSC Reporting Station
Light Rain Light Rain  
Wind Chill:   Ceiling: 5500
Heat Index:   Visibility: 9mi
Dew Point:   Wind: 8mph
Humidity: 93%   Direction: 60°ENE
Pressure: 30.1"   Gusts: NA
Location:  45°N, 71.71°W
Report Text: CYSC 220000Z AUTO 06007KT 030V090 9SM -RA OVC055 07/06 A3010 RMK SLP200
Loading
Personal Weather Stations






























Interactive Weather Map
Tropical Storm Tracking
New forecast layout! Learn more

10-Day Weather Forecast

Advertisements
Track Severe Weather on mobile